Time;durP1;ratioP1;P1;durP2;ratioP2;P2;SDS_P1;SDS_P2;PMS_P1;PMS_P2;Temp;Humidity;BMP_temperature;BMP_pressure;BME280_temperature;BME280_humidity;BME280_pressure;Samples;Min_cycle;Max_cycle;Signal;HPM_P1;HPM_P2
2022/01/22 00:02:07;;;;;;;12.80;6.10;;;;;;;-5.16;60.83;100887.69;107252;1252;61563;-81
2022/01/22 00:04:37;;;;;;;13.50;7.10;;;;;;;-5.11;58.53;100882.57;107014;1251;72786;-81
2022/01/22 00:07:06;;;;;;;15.40;6.70;;;;;;;-5.04;60.63;100885.26;107204;1250;72716;-80
2022/01/22 00:09:58;;;;;;;9.70;6.30;;;;;;;-4.98;60.13;100881.81;107150;1250;70951;-83
2022/01/22 00:15:41;;;;;;;12.70;5.50;;;;;;;-4.87;59.18;100882.10;107009;1253;62323;-81
2022/01/22 00:18:11;;;;;;;9.70;5.10;;;;;;;-4.78;58.77;100884.25;107347;1250;61481;-79
2022/01/22 00:20:40;;;;;;;9.00;4.50;;;;;;;-4.71;57.27;100887.77;107367;1250;72776;-77
2022/01/22 00:23:09;;;;;;;7.80;3.80;;;;;;;-4.65;56.62;100887.89;107339;1250;72748;-81
2022/01/22 00:25:38;;;;;;;6.80;4.10;;;;;;;-4.56;55.84;100881.20;107462;1250;70917;-82
2022/01/22 00:28:07;;;;;;;8.40;3.80;;;;;;;-4.47;55.38;100878.91;107504;1248;72538;-80
2022/01/22 00:30:36;;;;;;;9.40;4.20;;;;;;;-4.37;54.80;100874.23;107565;1249;60080;-79
2022/01/22 00:33:05;;;;;;;8.60;4.30;;;;;;;-4.29;54.61;100869.74;107756;1249;59789;-80
2022/01/22 00:35:35;;;;;;;6.90;3.80;;;;;;;-4.21;54.11;100864.06;107148;1252;71313;-83
2022/01/22 00:38:04;;;;;;;7.40;4.10;;;;;;;-4.11;54.75;100862.61;107220;1251;72769;-80
2022/01/22 00:40:36;;;;;;;7.50;3.30;;;;;;;-4.04;54.59;100859.81;107058;1250;70261;-82
2022/01/22 00:43:05;;;;;;;6.50;3.70;;;;;;;-3.94;55.11;100861.42;107131;1250;73140;-80
2022/01/22 00:45:34;;;;;;;10.20;4.50;;;;;;;-3.82;54.42;100859.77;107166;1251;667368;-80
2022/01/22 00:48:04;;;;;;;10.30;4.60;;;;;;;-3.77;53.03;100860.90;108299;1249;61308;-81
2022/01/22 00:50:33;;;;;;;7.70;4.50;;;;;;;-3.66;54.33;100860.77;109200;1250;73864;-82
2022/01/22 00:53:03;;;;;;;8.90;4.30;;;;;;;-3.56;53.21;100864.40;108688;1250;72424;-81
2022/01/22 00:55:32;;;;;;;7.50;4.20;;;;;;;-3.56;52.61;100861.84;107419;1251;70512;-81
2022/01/22 00:58:00;;;;;;;7.80;4.20;;;;;;;-3.54;52.83;100858.92;107190;1250;74311;-79
2022/01/22 01:00:30;;;;;;;7.70;3.60;;;;;;;-3.54;52.45;100856.37;107352;1250;61877;-81
2022/01/22 01:02:59;;;;;;;6.40;3.90;;;;;;;-3.53;52.62;100857.72;107214;1250;61666;-78
2022/01/22 01:05:28;;;;;;;9.00;4.10;;;;;;;-3.49;53.22;100855.64;107503;1249;71764;-80
2022/01/22 01:07:57;;;;;;;6.30;3.60;;;;;;;-3.41;53.58;100854.85;107414;1250;71755;-79
2022/01/22 01:10:27;;;;;;;5.40;2.80;;;;;;;-3.38;52.82;100843.23;107483;1249;68566;-78
2022/01/22 01:12:57;;;;;;;7.70;4.10;;;;;;;-3.35;51.56;100839.11;107405;1250;73874;-77
2022/01/22 01:15:39;;;;;;;6.40;3.30;;;;;;;-3.35;51.83;100841.31;107205;1249;62262;-78
2022/01/22 01:34:43;;;;;;;8.30;3.80;;;;;;;-2.98;49.82;100827.86;107038;1253;60544;-82
2022/01/22 01:37:15;;;;;;;8.30;4.00;;;;;;;-2.93;49.84;100823.36;107218;1250;72789;-76
2022/01/22 01:39:47;;;;;;;6.50;3.50;;;;;;;-2.89;50.16;100828.75;107245;1252;71279;-80
2022/01/22 01:45:07;;;;;;;8.00;3.40;;;;;;;-2.85;49.93;100818.28;107164;1253;72323;-80
2022/01/22 01:47:48;;;;;;;9.70;4.00;;;;;;;-2.81;49.95;100815.16;107217;1250;61344;-80
2022/01/22 01:50:17;;;;;;;8.10;3.10;;;;;;;-2.83;50.26;100815.19;107263;1251;61251;-80
2022/01/22 01:52:53;;;;;;;10.30;3.60;;;;;;;-2.78;49.63;100816.14;107199;1252;74459;-79
2022/01/22 01:55:34;;;;;;;4.30;2.70;;;;;;;-2.74;49.19;100815.88;107178;1251;73620;-78
2022/01/22 01:58:18;;;;;;;6.30;3.70;;;;;;;-2.71;49.66;100815.52;107132;1252;70765;-78
2022/01/22 02:00:48;;;;;;;6.40;3.40;;;;;;;-2.68;49.22;100807.45;107033;1253;71748;-79
2022/01/22 02:03:18;;;;;;;5.50;3.50;;;;;;;-2.64;49.54;100810.30;106990;1252;61346;-77
2022/01/22 02:05:56;;;;;;;6.40;3.10;;;;;;;-2.63;49.20;100810.94;109329;1251;62840;-77
2022/01/22 02:08:26;;;;;;;6.30;3.40;;;;;;;-2.59;49.06;100812.59;107235;1252;72548;-80
2022/01/22 02:11:01;;;;;;;7.00;3.20;;;;;;;-2.55;48.77;100809.62;107235;1253;70367;-76
2022/01/22 02:25:49;;;;;;;8.80;3.30;;;;;;;-2.49;48.20;100815.15;107291;1251;73616;-72
2022/01/22 02:28:18;;;;;;;6.70;3.40;;;;;;;-2.48;47.65;100812.92;107207;1251;69973;-79
2022/01/22 02:30:51;;;;;;;8.10;4.00;;;;;;;-2.50;48.10;100811.57;107344;1251;67919;-80
2022/01/22 02:37:12;;;;;;;7.10;3.60;;;;;;;-2.53;47.67;100809.07;107231;1253;61325;-81
2022/01/22 02:39:58;;;;;;;7.40;3.40;;;;;;;-2.53;48.13;100807.71;107128;1253;60741;-84
2022/01/22 02:42:31;;;;;;;7.00;3.70;;;;;;;-2.54;47.95;100804.32;107211;1252;74572;-78
2022/01/22 02:45:08;;;;;;;7.70;4.20;;;;;;;-2.54;47.78;100804.14;107294;1251;73750;-79
2022/01/22 02:47:38;;;;;;;9.40;3.70;;;;;;;-2.55;48.11;100800.07;107072;1253;68672;-75
2022/01/22 02:50:08;;;;;;;7.20;4.30;;;;;;;-2.58;48.20;100800.29;107018;1253;71015;-78
2022/01/22 02:52:37;;;;;;;7.90;3.80;;;;;;;-2.55;47.75;100798.54;107249;1251;59747;-78
2022/01/22 02:55:08;;;;;;;5.80;2.70;;;;;;;-2.56;47.91;100797.70;107179;1253;57961;-77
2022/01/22 02:57:42;;;;;;;4.00;2.50;;;;;;;-2.56;47.46;100796.33;107304;1251;71148;-76
2022/01/22 03:00:18;;;;;;;4.30;2.90;;;;;;;-2.50;47.18;100795.05;107581;1250;70481;-80
2022/01/22 03:02:48;;;;;;;8.40;3.30;;;;;;;-2.51;47.38;100789.24;107325;1251;70618;-81
2022/01/22 03:05:19;;;;;;;4.50;3.30;;;;;;;-2.51;47.15;100784.47;107221;1249;73983;-78
2022/01/22 03:07:52;;;;;;;5.10;2.70;;;;;;;-2.49;47.03;100784.95;107134;1251;62624;-79
2022/01/22 03:10:24;;;;;;;;;;;;;;;-2.47;46.73;100786.30;107312;1250;62176;-77
2022/01/22 03:18:19;;;;;;;6.40;3.30;;;;;;;-2.49;47.09;100798.25;107177;1250;71224;-78
2022/01/22 03:29:03;;;;;;;4.90;3.20;;;;;;;-2.51;47.72;100800.49;107193;1252;72334;-76
2022/01/22 03:31:33;;;;;;;7.90;4.00;;;;;;;-2.52;47.94;100807.34;107281;1249;71544;-77
2022/01/22 03:34:03;;;;;;;6.50;3.70;;;;;;;-2.50;47.96;100807.30;107226;1252;69269;-78
2022/01/22 03:36:33;;;;;;;6.20;3.10;;;;;;;-2.54;48.08;100810.29;107311;1250;72905;-77
2022/01/22 03:39:08;;;;;;;10.40;3.80;;;;;;;-2.55;48.59;100808.60;107539;1249;59790;-76
2022/01/22 03:41:37;;;;;;;3.10;2.40;;;;;;;-2.52;48.21;100802.40;107459;1251;61397;-79
2022/01/22 03:44:08;;;;;;;6.70;3.70;;;;;;;-2.48;47.92;100799.94;107743;1252;73873;-78
2022/01/22 03:46:38;;;;;;;4.90;2.70;;;;;;;-2.48;47.96;100800.98;107605;1250;71503;-77
2022/01/22 03:49:10;;;;;;;8.30;3.50;;;;;;;-2.47;48.02;100801.63;107564;1249;70160;-81
2022/01/22 03:51:39;;;;;;;9.80;3.80;;;;;;;-2.47;48.12;100803.51;107382;1249;75433;-78
2022/01/22 03:54:10;;;;;;;5.50;3.40;;;;;;;-2.45;48.19;100803.47;107339;1249;62371;-78
2022/01/22 03:56:41;;;;;;;5.70;3.20;;;;;;;-2.45;47.85;100803.64;107308;1250;62813;-78
2022/01/22 03:59:23;;;;;;;8.80;3.90;;;;;;;-2.45;47.79;100805.70;107352;1249;73743;-77
2022/01/22 04:05:18;;;;;;;5.20;3.00;;;;;;;-2.57;48.19;100801.98;107352;1249;70349;-76
2022/01/22 04:10:18;;;;;;;6.60;3.10;;;;;;;-2.64;48.32;100806.71;107279;1252;59111;-81
2022/01/22 04:12:57;;;;;;;7.30;4.00;;;;;;;-2.69;48.34;100804.73;107283;1249;60564;-78
2022/01/22 04:15:29;;;;;;;5.20;3.50;;;;;;;-2.76;48.53;100807.56;107218;1251;71961;-78
2022/01/22 04:28:50;;;;;;;3.30;2.50;;;;;;;-2.92;50.74;100807.32;107231;1249;60874;-76
2022/01/22 04:31:19;;;;;;;3.80;3.10;;;;;;;-2.83;51.86;100809.06;107173;1250;74701;-79
2022/01/22 04:33:50;;;;;;;7.70;3.10;;;;;;;-2.74;51.39;100811.11;107106;1250;72117;-79
2022/01/22 04:36:21;;;;;;;5.50;3.20;;;;;;;-2.65;50.75;100808.77;107081;1251;72156;-79
2022/01/22 04:38:50;;;;;;;2.30;1.70;;;;;;;-2.61;49.99;100809.38;107118;1250;74431;-81
2022/01/22 04:41:20;;;;;;;5.00;2.90;;;;;;;-2.57;49.54;100813.92;107118;1250;61659;-80
2022/01/22 04:43:56;;;;;;;6.50;3.40;;;;;;;-2.58;49.41;100817.02;107115;1249;60997;-79
2022/01/22 04:49:12;;;;;;;5.60;2.90;;;;;;;-2.64;50.36;100821.20;107150;1249;72610;-77
2022/01/22 04:57:18;;;;;;;6.70;3.60;;;;;;;-2.89;52.22;100813.75;107185;1250;61357;-78
2022/01/22 04:59:47;;;;;;;7.20;3.90;;;;;;;-2.95;52.43;100808.20;107406;1249;61053;-78
2022/01/22 05:02:17;;;;;;;7.90;4.00;;;;;;;-3.01;52.40;100810.36;107160;1251;74558;-75
2022/01/22 05:04:58;;;;;;;6.40;3.90;;;;;;;-3.10;52.60;100813.88;107354;1249;71176;-77
2022/01/22 05:08:08;;;;;;;6.20;3.80;;;;;;;-3.18;54.06;100813.66;107283;1250;70993;-76
2022/01/22 05:10:48;;;;;;;6.80;3.80;;;;;;;-3.24;53.72;100810.51;107228;1251;72982;-76
2022/01/22 05:13:17;;;;;;;6.70;3.80;;;;;;;-3.30;54.52;100814.34;107182;1251;59794;-76
2022/01/22 05:15:46;;;;;;;10.10;4.50;;;;;;;-3.32;55.35;100818.27;107232;1250;59724;-77
2022/01/22 05:18:16;;;;;;;12.60;6.30;;;;;;;-3.31;54.32;100823.55;107284;1252;74007;-80
2022/01/22 05:20:53;;;;;;;13.10;5.40;;;;;;;-3.30;54.83;100823.88;107292;1252;71833;-74
2022/01/22 05:23:25;;;;;;;14.20;6.20;;;;;;;-3.28;55.91;100823.86;107429;1251;70331;-76
2022/01/22 05:25:58;;;;;;;13.90;6.60;;;;;;;-3.27;56.79;100825.02;107480;1250;74452;-76
2022/01/22 05:29:02;;;;;;;15.10;6.70;;;;;;;-3.22;54.64;100826.51;108464;1249;59356;-76
2022/01/22 05:38:06;;;;;;;13.60;4.90;;;;;;;-3.22;53.79;100812.52;107310;1250;69655;-80
2022/01/22 05:40:36;;;;;;;9.40;4.70;;;;;;;-3.24;53.72;100812.21;107249;1252;69484;-79
2022/01/22 05:43:05;;;;;;;10.00;5.30;;;;;;;-3.24;53.27;100812.04;107293;1250;71969;-78
2022/01/22 05:45:34;;;;;;;26.70;6.40;;;;;;;-3.28;53.65;100808.70;107386;1249;59088;-79
2022/01/22 05:48:04;;;;;;;10.40;5.80;;;;;;;-3.33;53.27;100811.49;107398;1250;60200;-78
2022/01/22 05:50:45;;;;;;;10.30;4.70;;;;;;;-3.36;53.02;100811.20;107301;1250;73585;-80
2022/01/22 06:01:46;;;;;;;6.30;4.20;;;;;;;-3.54;53.04;100822.31;107119;1252;59500;-80
2022/01/22 06:04:20;;;;;;;9.00;4.70;;;;;;;-3.57;53.05;100819.81;107254;1251;59710;-81
2022/01/22 06:06:54;;;;;;;11.50;5.50;;;;;;;-3.56;52.63;100821.00;107330;1251;71766;-80
2022/01/22 06:09:25;;;;;;;15.10;7.70;;;;;;;-3.54;52.25;100823.51;107201;1252;69789;-80
2022/01/22 06:12:43;;;;;;;10.90;6.20;;;;;;;-3.52;52.00;100826.90;107307;1252;70021;-80
2022/01/22 06:15:12;;;;;;;14.30;7.10;;;;;;;-3.46;52.06;100830.05;107301;1251;72885;-78
2022/01/22 06:18:04;;;;;;;10.30;5.20;;;;;;;-3.40;51.98;100833.90;107290;1251;60752;-78
2022/01/22 06:20:33;;;;;;;21.00;15.00;;;;;;;-3.33;52.24;100834.65;107179;1250;59979;-80
2022/01/22 06:23:04;;;;;;;21.10;8.30;;;;;;;-3.25;51.56;100828.07;107249;1250;72905;-81
2022/01/22 06:25:33;;;;;;;12.50;6.50;;;;;;;-3.17;51.64;100828.65;107216;1252;70881;-81
2022/01/22 06:28:02;;;;;;;19.30;8.80;;;;;;;-3.09;51.63;100832.46;107282;1249;70490;-75
2022/01/22 06:30:32;;;;;;;7.40;3.90;;;;;;;-3.09;51.79;100836.54;107264;1253;71589;-81
2022/01/22 06:33:01;;;;;;;6.50;3.10;;;;;;;-3.06;51.71;100840.08;107794;1252;60582;-83
2022/01/22 06:35:30;;;;;;;13.90;5.00;;;;;;;-3.10;52.04;100844.56;107925;1250;60981;-82
2022/01/22 06:38:02;;;;;;;7.00;4.40;;;;;;;-3.13;52.15;100846.65;108329;1250;73598;-79
2022/01/22 06:44:41;;;;;;;11.10;5.00;;;;;;;-3.10;52.69;100851.02;107117;1251;71046;-83
2022/01/22 06:47:56;;;;;;;9.60;5.20;;;;;;;-3.00;52.81;100852.93;107462;1251;72566;-82
2022/01/22 06:50:27;;;;;;;15.40;7.00;;;;;;;-2.95;52.22;100852.01;107235;1252;60557;-79
2022/01/22 06:53:07;;;;;;;13.00;5.20;;;;;;;-2.90;52.12;100851.95;107257;1251;62221;-78
2022/01/22 06:55:56;;;;;;;15.80;7.60;;;;;;;-2.79;52.18;100854.84;107316;1249;71280;-78
2022/01/22 06:58:27;;;;;;;30.00;12.60;;;;;;;-2.76;52.36;100851.23;107306;1252;71162;-78
2022/01/22 07:01:08;;;;;;;25.90;11.40;;;;;;;-2.68;52.28;100851.77;107463;1250;69164;-80
2022/01/22 07:03:55;;;;;;;64.80;30.90;;;;;;;-2.56;51.64;100850.89;107307;1250;73046;-82
2022/01/22 07:06:35;;;;;;;18.80;8.20;;;;;;;-2.42;51.47;100856.46;107411;1251;59736;-76
2022/01/22 07:09:04;;;;;;;20.20;8.80;;;;;;;-2.36;50.49;100851.94;107360;1252;60092;-71
2022/01/22 07:11:35;;;;;;;27.30;11.30;;;;;;;-2.32;50.06;100851.70;107438;1251;70977;-79
2022/01/22 07:14:04;;;;;;;31.60;12.80;;;;;;;-2.28;49.95;100854.35;107128;1252;70760;-74
2022/01/22 07:16:34;;;;;;;20.50;9.40;;;;;;;-2.25;49.76;100852.77;107337;1251;69407;-79
2022/01/22 07:19:24;;;;;;;7.80;4.50;;;;;;;-2.17;49.26;100856.90;107278;1251;74572;-81
2022/01/22 07:22:08;;;;;;;17.60;9.00;;;;;;;-2.09;49.86;100857.27;107142;1250;62067;-78
2022/01/22 07:24:48;;;;;;;21.70;10.80;;;;;;;-2.02;49.78;100860.39;107116;1250;61014;-79
2022/01/22 07:27:18;;;;;;;23.50;12.10;;;;;;;-2.00;49.34;100864.10;107203;1249;73772;-81
2022/01/22 07:29:49;;;;;;;19.50;8.70;;;;;;;-1.96;49.09;100862.83;107199;1251;69424;-82
2022/01/22 07:32:28;;;;;;;26.00;15.20;;;;;;;-1.90;49.10;100868.00;107242;1251;69864;-80
2022/01/22 07:34:57;;;;;;;24.60;9.90;;;;;;;-1.92;48.82;100867.53;107131;1252;72862;-71
2022/01/22 07:37:27;;;;;;;17.10;8.70;;;;;;;-1.79;47.96;100864.55;107063;1252;58780;-72
2022/01/22 07:40:04;;;;;;;15.80;8.30;;;;;;;-1.77;47.87;100864.19;107314;1250;60434;-73
2022/01/22 07:43:16;;;;;;;22.00;10.60;;;;;;;-1.75;48.01;100862.10;106978;1250;74675;-71
2022/01/22 07:46:06;;;;;;;15.60;8.20;;;;;;;-1.70;47.63;100863.36;107055;1251;72802;-71
2022/01/22 07:48:40;;;;;;;20.50;9.80;;;;;;;-1.69;47.50;100867.61;107052;1249;70071;-74
2022/01/22 07:51:13;;;;;;;18.50;10.00;;;;;;;-1.67;47.70;100866.55;107034;1251;71691;-72
2022/01/22 07:53:45;;;;;;;18.50;8.70;;;;;;;-1.59;47.18;100870.85;106997;1251;59078;-73
2022/01/22 07:56:19;;;;;;;10.20;5.30;;;;;;;-1.55;47.14;100865.80;107233;1250;59634;-71
2022/01/22 07:58:48;;;;;;;20.70;9.00;;;;;;;-1.45;46.76;100864.23;107031;1253;71276;-74
2022/01/22 08:01:17;;;;;;;12.60;6.30;;;;;;;-1.48;47.16;100863.61;107071;1251;70726;-71
2022/01/22 08:04:04;;;;;;;18.50;8.50;;;;;;;-1.44;46.98;100863.70;107136;1249;71591;-71
2022/01/22 08:07:23;;;;;;;19.70;8.80;;;;;;;-1.42;47.29;100864.02;106792;1253;74304;-71
2022/01/22 08:10:43;;;;;;;11.20;5.50;;;;;;;-1.42;47.57;100864.00;106580;1251;61355;-69
2022/01/22 08:13:13;;;;;;;13.50;4.80;;;;;;;-1.45;47.21;100867.82;106976;1251;60395;-72
2022/01/22 08:15:42;;;;;;;16.80;7.80;;;;;;;-1.46;47.08;100870.07;106989;1252;72940;-73
2022/01/22 08:18:12;;;;;;;12.50;6.00;;;;;;;-1.52;47.43;100873.77;107019;1251;71742;-72
2022/01/22 08:20:41;;;;;;;13.10;6.10;;;;;;;-1.49;47.77;100874.21;106932;1250;71119;-73
2022/01/22 08:23:30;;;;;;;9.30;5.00;;;;;;;-1.40;47.85;100883.27;107071;1251;74788;-75
2022/01/22 08:26:25;;;;;;;13.50;6.30;;;;;;;-1.25;47.29;100879.55;107043;1251;59747;-74
2022/01/22 08:29:47;;;;;;;10.70;5.30;;;;;;;-1.09;47.19;100881.08;107169;1251;60204;-74
2022/01/22 08:37:50;;;;;;;6.40;4.10;;;;;;;-0.80;47.85;100883.35;107269;1251;68970;-75
2022/01/22 08:40:19;;;;;;;9.20;4.40;;;;;;;-0.73;48.22;100886.27;106948;1253;73740;-76
2022/01/22 08:42:49;;;;;;;8.20;4.30;;;;;;;-0.60;48.14;100889.39;107040;1251;60679;-75
2022/01/22 08:45:18;;;;;;;12.60;5.70;;;;;;;-0.46;47.72;100881.55;107119;1251;60135;-77
2022/01/22 08:47:48;;;;;;;11.10;4.70;;;;;;;-0.42;48.18;100880.73;107196;1253;72263;-75
2022/01/22 08:50:19;;;;;;;8.90;3.80;;;;;;;-0.29;48.53;100875.98;107040;1253;70939;-73
2022/01/22 08:52:48;;;;;;;6.50;3.40;;;;;;;-0.17;48.67;100873.27;107207;1249;69034;-77
2022/01/22 08:55:18;;;;;;;7.20;3.40;;;;;;;-0.22;48.99;100892.58;107062;1253;72265;-75
2022/01/22 08:57:49;;;;;;;7.20;3.40;;;;;;;-0.19;49.33;100893.70;107152;1251;60581;-77
2022/01/22 09:01:11;;;;;;;8.50;3.50;;;;;;;-0.23;49.39;100883.19;107197;1252;60393;-76
2022/01/22 09:03:46;;;;;;;10.20;4.10;;;;;;;-0.19;49.27;100870.77;107241;1251;73071;-75
2022/01/22 09:06:41;;;;;;;10.50;4.00;;;;;;;-0.30;49.34;100876.85;107259;1251;72483;-75
2022/01/22 09:09:37;;;;;;;6.60;3.30;;;;;;;-0.36;49.40;100872.56;107143;1249;71820;-75
2022/01/22 09:12:22;;;;;;;6.60;2.60;;;;;;;-0.33;49.34;100867.35;107300;1251;73007;-73
2022/01/22 09:15:04;;;;;;;4.40;2.30;;;;;;;-0.37;49.15;100872.06;107146;1251;60903;-72
2022/01/22 09:17:33;;;;;;;6.90;3.60;;;;;;;-0.34;49.37;100876.96;107288;1251;62903;-74
2022/01/22 09:20:09;;;;;;;7.00;3.20;;;;;;;-0.31;49.18;100880.12;107139;1251;73314;-71
2022/01/22 09:22:38;;;;;;;9.50;4.00;;;;;;;-0.31;49.26;100875.69;107146;1252;71068;-78
2022/01/22 09:25:10;;;;;;;10.30;3.50;;;;;;;-0.26;48.69;100868.70;107075;1253;69151;-75
2022/01/22 09:27:39;;;;;;;6.00;3.10;;;;;;;-0.17;48.69;100864.05;107183;1253;70203;-75
2022/01/22 09:30:09;;;;;;;5.70;3.10;;;;;;;-0.04;47.33;100858.05;107328;1253;58894;-76
2022/01/22 09:32:38;;;;;;;7.10;4.00;;;;;;;0.05;47.32;100863.63;107197;1251;61134;-78
2022/01/22 09:35:25;;;;;;;5.50;3.30;;;;;;;0.13;47.14;100863.77;107089;1252;74124;-76
2022/01/22 09:38:13;;;;;;;4.80;2.80;;;;;;;0.15;47.16;100860.95;107111;1251;72898;-75
2022/01/22 09:40:48;;;;;;;5.00;2.90;;;;;;;0.19;45.95;100853.66;107164;1251;71098;-76
2022/01/22 09:43:33;;;;;;;9.10;4.70;;;;;;;0.15;45.74;100850.31;107122;1253;72643;-77
2022/01/22 09:46:21;;;;;;;8.30;3.40;;;;;;;0.14;45.97;100850.88;107102;1251;60650;-77
2022/01/22 09:49:00;;;;;;;10.40;3.30;;;;;;;0.26;45.76;100861.18;107328;1250;60890;-77
2022/01/22 09:52:07;;;;;;;8.90;3.30;;;;;;;0.33;45.07;100862.36;107330;1250;71736;-76
2022/01/22 09:54:54;;;;;;;5.50;2.90;;;;;;;0.24;45.11;100861.57;107389;1249;69791;-74
2022/01/22 09:58:17;;;;;;;6.40;3.40;;;;;;;0.15;44.43;100866.61;107085;1251;69661;-78
2022/01/22 10:01:30;;;;;;;7.10;2.90;;;;;;;0.02;44.57;100865.23;107309;1250;71475;-78
2022/01/22 10:04:09;;;;;;;4.90;3.20;;;;;;;-0.06;45.32;100864.77;107306;1251;59829;-78
2022/01/22 10:06:52;;;;;;;7.80;3.40;;;;;;;-0.14;45.36;100876.27;107286;1250;60679;-76
2022/01/22 10:10:07;;;;;;;5.50;2.80;;;;;;;-0.18;45.93;100876.21;107040;1251;73983;-73
2022/01/22 10:12:52;;;;;;;7.30;3.10;;;;;;;-0.18;46.12;100870.73;107159;1250;71877;-81
2022/01/22 10:15:35;;;;;;;;;;;;;;;-0.05;46.05;100874.16;107162;1250;71564;-77
2022/01/22 10:18:10;;;;;;;9.80;3.50;;;;;;;-0.15;45.82;100876.98;107025;1252;74418;-73
2022/01/22 10:20:41;;;;;;;8.30;4.00;;;;;;;-0.13;45.37;100867.85;107236;1250;59030;-76
2022/01/22 10:23:23;;;;;;;8.00;3.50;;;;;;;-0.07;45.10;100870.27;107249;1249;61716;-80
2022/01/22 10:26:02;;;;;;;9.70;4.10;;;;;;;0.09;45.19;100860.43;107180;1250;72785;-72
2022/01/22 10:28:55;;;;;;;10.30;4.40;;;;;;;0.41;44.86;100860.77;107204;1251;72178;-71
2022/01/22 10:31:40;;;;;;;;;;;;;;;0.74;44.04;100859.81;107075;1251;69128;-71
2022/01/22 10:34:47;;;;;;;6.80;2.60;;;;;;;0.95;42.50;100858.15;107107;1250;72322;-72
2022/01/22 10:37:43;;;;;;;5.10;2.70;;;;;;;0.99;42.29;100854.62;107066;1251;60645;-68
2022/01/22 10:40:34;;;;;;;6.80;2.90;;;;;;;0.91;41.94;100857.77;107057;1250;62726;-72
2022/01/22 10:46:04;;;;;;;7.50;3.00;;;;;;;0.53;42.90;100862.30;107123;1251;72110;-72
2022/01/22 10:48:35;;;;;;;7.00;3.20;;;;;;;0.45;42.52;100859.30;107055;1251;70083;-72
2022/01/22 10:51:25;;;;;;;6.70;3.40;;;;;;;0.30;42.69;100858.69;107083;1252;72949;-72
2022/01/22 10:53:58;;;;;;;7.80;3.00;;;;;;;0.37;43.52;100855.23;107203;1251;60938;-71
2022/01/22 10:56:32;;;;;;;4.60;2.40;;;;;;;0.71;43.32;100850.48;107179;1251;60837;-69
2022/01/22 10:59:06;;;;;;;7.20;3.50;;;;;;;0.95;42.53;100848.06;107160;1251;74374;-72
2022/01/22 11:01:45;;;;;;;5.30;3.20;;;;;;;0.81;42.50;100851.20;106806;1251;72182;-72
2022/01/22 11:04:27;;;;;;;6.80;2.90;;;;;;;0.79;42.52;100846.29;107060;1251;70954;-70
2022/01/22 11:07:03;;;;;;;7.10;3.40;;;;;;;0.63;43.46;100847.80;106974;1250;73518;-70
2022/01/22 11:09:51;;;;;;;4.50;2.70;;;;;;;0.90;42.67;100842.36;107048;1251;58976;-71
2022/01/22 11:12:20;;;;;;;6.40;3.20;;;;;;;1.13;41.67;100839.95;107032;1249;59719;-72
2022/01/22 11:14:49;;;;;;;4.30;2.20;;;;;;;1.31;41.50;100838.51;107139;1251;71838;-74
2022/01/22 11:17:21;;;;;;;6.60;3.40;;;;;;;1.54;40.66;100835.89;106956;1251;69899;-76
2022/01/22 11:19:51;;;;;;;5.00;2.50;;;;;;;1.64;40.27;100838.30;107308;1251;69817;-79
2022/01/22 11:22:26;;;;;;;4.70;2.40;;;;;;;1.87;40.25;100832.91;107089;1252;71915;-75
2022/01/22 11:24:57;;;;;;;5.30;2.80;;;;;;;2.03;39.76;100825.27;107196;1251;61786;-75
2022/01/22 11:27:28;;;;;;;7.00;2.90;;;;;;;2.31;39.57;100823.25;107090;1251;62220;-71
2022/01/22 11:30:07;;;;;;;2.40;1.90;;;;;;;2.50;38.87;100817.94;106989;1251;73164;-71
2022/01/22 11:33:06;;;;;;;4.20;2.80;;;;;;;2.78;38.38;100830.80;107252;1251;72024;-70
2022/01/22 11:36:13;;;;;;;4.60;2.60;;;;;;;2.52;38.23;100814.75;107094;1250;69169;-72
2022/01/22 11:38:58;;;;;;;4.50;2.50;;;;;;;2.67;38.29;100806.13;107219;1251;74460;-70
2022/01/22 11:41:28;;;;;;;4.40;2.40;;;;;;;2.56;38.21;100809.27;107254;1251;59020;-74
2022/01/22 11:44:10;;;;;;;6.50;2.50;;;;;;;2.41;38.07;100800.36;107146;1251;61312;-72
2022/01/22 11:46:58;;;;;;;5.90;2.80;;;;;;;2.10;38.30;100808.38;106951;1252;72619;-72
2022/01/22 11:49:30;;;;;;;7.30;2.80;;;;;;;1.89;38.18;100813.21;106908;1252;72297;-73
2022/01/22 11:52:12;;;;;;;5.50;3.10;;;;;;;1.74;39.11;100809.98;107224;1251;71455;-71
2022/01/22 11:54:59;;;;;;;5.10;2.50;;;;;;;1.69;38.72;100813.59;107246;1251;73344;-71
2022/01/22 11:57:32;;;;;;;6.40;3.40;;;;;;;1.50;39.00;100801.85;107262;1251;59711;-69
2022/01/22 12:00:27;;;;;;;6.50;3.00;;;;;;;1.30;40.44;100803.02;106781;1251;61736;-70
2022/01/22 12:03:07;;;;;;;8.10;3.30;;;;;;;1.28;40.67;100805.33;107219;1251;71081;-69
2022/01/22 12:06:00;;;;;;;6.80;3.10;;;;;;;1.14;41.17;100809.70;107251;1251;72711;-68
2022/01/22 12:09:05;;;;;;;7.20;3.60;;;;;;;1.06;41.65;100810.48;107116;1251;70917;-70
2022/01/22 12:14:51;;;;;;;6.20;3.20;;;;;;;1.03;41.49;100811.44;107025;1251;60559;-70
2022/01/22 12:17:46;;;;;;;7.40;3.20;;;;;;;1.12;41.39;100809.42;107202;1249;62509;-69
2022/01/22 12:23:12;;;;;;;6.10;3.20;;;;;;;1.37;39.78;100815.16;107670;1251;69691;-71
2022/01/22 12:25:41;;;;;;;5.80;3.10;;;;;;;1.56;39.17;100810.39;107541;1250;70187;-75
2022/01/22 12:28:13;;;;;;;6.40;3.30;;;;;;;1.61;38.85;100812.65;107304;1250;72518;-73
2022/01/22 12:30:45;;;;;;;6.60;4.00;;;;;;;2.00;38.38;100812.66;107183;1251;60709;-74
2022/01/22 12:33:38;;;;;;;7.10;3.70;;;;;;;2.30;38.43;100805.73;107222;1251;60877;-68
2022/01/22 12:36:18;;;;;;;5.10;3.30;;;;;;;3.07;38.78;100810.04;107230;1251;73559;-68
2022/01/22 12:39:11;;;;;;;3.60;2.00;;;;;;;3.76;37.60;100807.02;107206;1251;72315;-66
2022/01/22 12:44:19;;;;;;;5.40;2.90;;;;;;;5.03;34.20;100806.81;107246;1251;73128;-82
2022/01/22 12:46:57;;;;;;;7.90;3.30;;;;;;;5.22;33.80;100810.57;107076;1251;59860;-76
2022/01/22 12:49:29;;;;;;;8.10;4.00;;;;;;;4.56;33.65;100808.98;107425;1251;59428;-87
2022/01/22 12:52:05;;;;;;;5.80;3.60;;;;;;;4.14;34.22;100807.60;107421;1251;73573;-83
2022/01/22 12:54:41;;;;;;;8.90;4.10;;;;;;;3.59;34.62;100809.81;107327;1251;72798;-84
2022/01/22 12:57:22;;;;;;;6.80;3.80;;;;;;;3.65;35.11;100806.80;107220;1251;69117;-78
2022/01/22 12:59:54;;;;;;;8.20;4.70;;;;;;;4.02;34.96;100804.20;107281;1251;73089;-81
2022/01/22 13:02:46;;;;;;;7.70;3.40;;;;;;;4.44;34.79;100801.99;107259;1251;61611;-73
2022/01/22 13:05:19;;;;;;;5.40;2.80;;;;;;;4.71;33.96;100806.23;107143;1251;62188;-77
2022/01/22 13:08:01;;;;;;;7.30;3.90;;;;;;;4.63;33.35;100806.96;107191;1252;71378;-79
2022/01/22 13:10:53;;;;;;;6.10;3.10;;;;;;;4.10;33.43;100806.56;106867;1251;70944;-80
2022/01/22 13:13:25;;;;;;;6.50;2.70;;;;;;;3.46;34.01;100810.72;107175;1251;70756;-78
2022/01/22 13:16:11;;;;;;;7.80;4.00;;;;;;;3.09;34.14;100815.80;107180;1251;74493;-75
2022/01/22 13:18:41;;;;;;;8.90;3.90;;;;;;;2.44;36.48;100822.07;107238;1251;60207;-77
2022/01/22 13:21:12;;;;;;;6.60;4.00;;;;;;;2.41;36.22;100821.87;107190;1251;59834;-71
2022/01/22 13:23:42;;;;;;;9.00;4.90;;;;;;;2.26;36.21;100823.27;107162;1250;71891;-78
2022/01/22 13:26:11;;;;;;;8.00;3.60;;;;;;;2.10;36.09;100828.64;107201;1251;71342;-79
2022/01/22 13:28:40;;;;;;;9.10;4.70;;;;;;;1.93;36.49;100833.55;107155;1253;70230;-83
2022/01/22 13:31:14;;;;;;;10.70;4.20;;;;;;;2.10;36.58;100833.43;107282;1251;74465;-79
2022/01/22 13:49:54;;;;;;;7.30;4.10;;;;;;;2.91;35.22;100840.80;107001;1251;60993;-77
2022/01/22 13:52:29;;;;;;;5.50;3.00;;;;;;;2.44;35.82;100845.63;107284;1250;61541;-72
2022/01/22 13:54:59;;;;;;;6.50;3.50;;;;;;;2.16;36.38;100853.70;107342;1251;74508;-70
2022/01/22 13:57:34;;;;;;;8.30;4.00;;;;;;;1.80;36.90;100849.10;107369;1249;71077;-75
2022/01/22 14:00:18;;;;;;;5.30;3.50;;;;;;;1.60;37.62;100849.09;107205;1251;70939;-80
2022/01/22 14:03:32;;;;;;;6.00;2.90;;;;;;;1.40;37.82;100848.37;107053;1250;73555;-82
2022/01/22 14:06:01;;;;;;;6.40;2.80;;;;;;;1.29;37.91;100855.40;107107;1250;59078;-81
2022/01/22 14:08:33;;;;;;;5.40;2.40;;;;;;;1.23;38.16;100852.16;106921;1251;58996;-74
2022/01/22 14:11:14;;;;;;;7.30;3.10;;;;;;;1.11;38.30;100857.00;106985;1251;74726;-76
2022/01/22 14:13:43;;;;;;;8.90;4.50;;;;;;;1.05;39.17;100855.98;107118;1251;72734;-76